Terminal Aerodrome Forecast
Issued by NWS

Home | Current Version | Previous Version | Text Only | Print | Product List | Glossary On
Versions: 1 2 3 4 5 6 7 8 9 10 11 12 13 14 15 16 17 18 19 20 21 22 23
154
FTUS43 KILX 260520
TAFDEC
TAF
KDEC 260520Z 2606/2706 VRB03KT P6SM BKN250
     FM260900 VRB03KT 3SM BR BKN250
      TEMPO 2610/2613 1SM BR SCT005
     FM261400 06006KT P6SM SCT045=

USA.gov is the U.S. government's official web portal to all federal, state and local government web resources and services.